Time;durP1;ratioP1;P1;durP2;ratioP2;P2;SDS_P1;SDS_P2;PMS_P1;PMS_P2;Temp;Humidity;BMP_temperature;BMP_pressure;BME280_temperature;BME280_humidity;BME280_pressure;Samples;Min_cycle;Max_cycle;Signal;HPM_P1;HPM_P2
2022/09/24 00:01:24;;;;;;;7.63;5.13;;;;;;;12.51;61.50;100709.00;5048526;28;20550;-72
2022/09/24 00:03:59;;;;;;;9.48;5.38;;;;;;;12.51;61.22;100718.72;5033169;28;20132;-72
2022/09/24 00:06:27;;;;;;;9.65;5.28;;;;;;;12.51;61.25;100721.38;5044582;28;20045;-72
2022/09/24 00:08:56;;;;;;;9.00;6.65;;;;;;;12.50;62.11;100723.16;5031031;28;20051;-71
2022/09/24 00:11:25;;;;;;;10.82;6.85;;;;;;;12.48;61.90;100722.44;5031336;28;20053;-73
2022/09/24 00:13:53;;;;;;;8.77;4.95;;;;;;;12.47;61.91;100723.34;5029365;28;20049;-72
2022/09/24 00:16:24;;;;;;;10.88;5.47;;;;;;;12.45;61.65;100719.97;5030079;28;20045;-73
2022/09/24 00:18:52;;;;;;;7.38;5.00;;;;;;;12.44;62.32;100718.28;5034228;28;20064;-72
2022/09/24 00:21:26;;;;;;;7.05;4.82;;;;;;;12.44;62.89;100720.09;5032139;28;20128;-72
2022/09/24 00:23:55;;;;;;;9.35;4.70;;;;;;;12.39;61.97;100720.38;5021871;28;20053;-72
2022/09/24 00:29:11;;;;;;;5.70;4.93;;;;;;;12.29;62.06;100708.72;5035198;28;20132;-71
2022/09/24 00:31:38;;;;;;;6.78;5.35;;;;;;;12.23;62.06;100709.97;5027792;28;20132;-72
2022/09/24 00:34:06;;;;;;;8.25;4.88;;;;;;;12.22;61.93;100707.44;5030053;28;20048;-72
2022/09/24 00:36:33;;;;;;;9.25;5.07;;;;;;;12.23;61.84;100706.47;5048687;28;20051;-72
2022/09/24 00:39:01;;;;;;;9.07;5.43;;;;;;;12.23;62.26;100703.84;5044513;28;20499;-70
2022/09/24 00:41:30;;;;;;;6.50;5.03;;;;;;;12.15;63.04;100701.69;5031833;28;20204;-73
2022/09/24 00:43:58;;;;;;;9.57;4.35;;;;;;;12.01;63.92;100693.81;5027180;28;20051;-72
2022/09/24 00:46:32;;;;;;;8.40;4.63;;;;;;;11.99;63.37;100696.56;5022406;28;20394;-72
2022/09/24 00:49:03;;;;;;;6.93;4.72;;;;;;;12.01;62.98;100694.66;5029583;28;20057;-71
2022/09/24 00:51:31;;;;;;;8.18;4.88;;;;;;;12.00;63.08;100692.97;5031975;28;20064;-70
2022/09/24 00:54:02;;;;;;;11.20;4.78;;;;;;;12.01;63.52;100684.09;5033432;28;20406;-72
2022/09/24 00:56:33;;;;;;;9.82;5.32;;;;;;;12.01;63.25;100689.38;5050296;28;20071;-70
2022/09/24 00:59:03;;;;;;;7.88;5.28;;;;;;;11.97;63.39;100689.66;5032537;28;20517;-72
2022/09/24 01:01:30;;;;;;;7.88;4.88;;;;;;;11.93;63.61;100693.44;5027515;28;20138;-70
2022/09/24 01:03:58;;;;;;;8.85;4.70;;;;;;;11.94;63.51;100689.88;5037499;28;20479;-71
2022/09/24 01:06:26;;;;;;;7.97;4.82;;;;;;;11.92;63.95;100689.97;5020036;28;20048;-71
2022/09/24 01:08:54;;;;;;;7.50;4.60;;;;;;;11.89;63.84;100685.75;5025758;28;20051;-70
2022/09/24 01:11:25;;;;;;;8.27;5.03;;;;;;;11.90;63.73;100683.94;5025998;28;20055;-71
2022/09/24 01:14:14;;;;;;;6.65;4.88;;;;;;;11.88;63.90;100677.91;5008229;28;20057;-72
2022/09/24 01:17:32;;;;;;;7.50;4.70;;;;;;;11.82;63.71;100687.06;5044937;28;20038;-70
2022/09/24 01:20:22;;;;;;;9.73;4.75;;;;;;;11.79;63.97;100674.03;4988122;28;20560;-71
2022/09/24 01:22:52;;;;;;;7.03;5.10;;;;;;;11.78;64.20;100672.34;5038860;28;20503;-70
2022/09/24 01:25:24;;;;;;;6.75;4.60;;;;;;;11.79;64.30;100674.03;5041293;28;20423;-70
2022/09/24 01:28:06;;;;;;;7.22;4.45;;;;;;;11.80;64.04;100665.19;5014774;28;20061;-71
2022/09/24 01:30:37;;;;;;;7.40;5.07;;;;;;;11.78;63.54;100664.44;5042255;28;20052;-72
2022/09/24 01:33:07;;;;;;;6.55;4.47;;;;;;;11.79;63.80;100660.84;5044942;28;20391;-71
2022/09/24 01:35:44;;;;;;;8.10;4.93;;;;;;;11.79;63.86;100662.63;5014790;28;20071;-70
2022/09/24 01:38:17;;;;;;;6.95;5.32;;;;;;;11.75;64.05;100666.41;5037304;28;20472;-71
2022/09/24 01:40:45;;;;;;;6.60;4.90;;;;;;;11.75;64.62;100664.63;5031257;28;20048;-71
2022/09/24 01:43:13;;;;;;;6.10;4.68;;;;;;;11.76;64.54;100662.84;5042731;28;20132;-71
2022/09/24 01:45:41;;;;;;;10.50;5.00;;;;;;;11.78;64.52;100660.94;5036379;28;20512;-69
2022/09/24 01:48:08;;;;;;;5.97;4.85;;;;;;;11.76;64.65;100649.66;5028668;28;20412;-72
2022/09/24 01:50:49;;;;;;;8.05;4.82;;;;;;;11.74;64.25;100640.97;5026460;28;20068;-71
2022/09/24 01:53:19;;;;;;;6.65;4.32;;;;;;;11.74;64.88;100641.81;5028975;28;20057;-71
2022/09/24 01:55:49;;;;;;;8.02;4.80;;;;;;;11.76;65.24;100639.94;5035524;23;20045;-61
2022/09/24 01:58:21;;;;;;;8.77;5.57;;;;;;;11.76;65.37;100639.94;5048942;28;20347;-61
2022/09/24 02:00:52;;;;;;;7.28;5.45;;;;;;;11.77;64.99;100648.72;5029651;28;20063;-61
2022/09/24 02:03:28;;;;;;;9.27;5.43;;;;;;;11.66;66.45;100634.41;5022680;28;20045;-61
2022/09/24 02:06:08;;;;;;;6.75;4.70;;;;;;;11.68;65.73;100639.59;5026975;28;20049;-63
2022/09/24 02:08:40;;;;;;;7.05;4.68;;;;;;;11.70;65.58;100634.22;5029966;28;20049;-63
2022/09/24 02:11:13;;;;;;;7.20;4.85;;;;;;;11.74;66.01;100633.06;5008903;28;20045;-61
2022/09/24 02:14:00;;;;;;;7.88;4.95;;;;;;;11.72;65.84;100632.34;5041993;28;20051;-60
2022/09/24 02:16:38;;;;;;;7.25;4.22;;;;;;;11.70;65.55;100634.22;5045955;28;20416;-61
2022/09/24 02:19:08;;;;;;;8.07;5.07;;;;;;;11.63;66.13;100629.34;5050730;28;20083;-61
2022/09/24 02:21:36;;;;;;;6.20;5.03;;;;;;;11.65;65.38;100631.84;5068490;28;20056;-61
2022/09/24 02:24:15;;;;;;;6.68;4.85;;;;;;;11.69;65.58;100636.00;5052332;28;20131;-60
2022/09/24 02:26:43;;;;;;;10.27;5.43;;;;;;;11.68;65.51;100633.47;5048104;28;20073;-60
2022/09/24 02:29:10;;;;;;;8.27;5.38;;;;;;;11.69;65.56;100624.59;5050201;28;20090;-59
2022/09/24 02:31:40;;;;;;;7.22;5.05;;;;;;;11.72;66.40;100632.34;5033400;28;20065;-61
2022/09/24 02:34:19;;;;;;;6.50;4.65;;;;;;;11.70;66.03;100626.28;5034252;28;20064;-61
2022/09/24 02:36:52;;;;;;;11.13;5.20;;;;;;;11.70;66.15;100623.66;5062189;28;20144;-62
2022/09/24 02:39:19;;;;;;;7.05;4.38;;;;;;;11.68;65.89;100622.91;5049933;28;20428;-62
2022/09/24 02:41:48;;;;;;;8.05;4.90;;;;;;;11.68;66.14;100622.91;5069454;28;20416;-60
2022/09/24 02:44:15;;;;;;;7.20;5.28;;;;;;;11.61;65.77;100628.56;5050112;28;20046;-63
2022/09/24 02:46:44;;;;;;;8.65;5.55;;;;;;;11.61;66.16;100619.81;5068263;28;20048;-63
2022/09/24 02:49:13;;;;;;;7.03;4.93;;;;;;;11.57;66.08;100621.81;5069173;28;20062;-61
2022/09/24 02:51:41;;;;;;;7.25;5.03;;;;;;;11.60;66.50;100618.97;5051644;28;20059;-60
2022/09/24 02:54:09;;;;;;;6.28;4.80;;;;;;;11.64;67.04;100622.25;5065943;28;20052;-62
2022/09/24 02:56:36;;;;;;;8.27;4.47;;;;;;;11.66;66.81;100615.09;5067337;28;20437;-62
2022/09/24 02:59:03;;;;;;;6.53;5.13;;;;;;;11.69;67.09;100614.06;5068011;28;20476;-62
2022/09/24 03:01:31;;;;;;;10.63;4.90;;;;;;;11.70;67.28;100611.31;5066955;28;20074;-61
2022/09/24 03:03:58;;;;;;;7.57;4.78;;;;;;;11.71;66.36;100609.53;5048096;28;20061;-60
2022/09/24 03:06:25;;;;;;;5.88;4.95;;;;;;;11.72;66.70;100606.81;5054676;28;20059;-63
2022/09/24 03:08:52;;;;;;;7.53;5.38;;;;;;;11.71;66.86;100606.88;5043121;28;20056;-61
2022/09/24 03:11:20;;;;;;;9.48;5.40;;;;;;;11.68;68.01;100609.75;5058227;28;20049;-62
2022/09/24 03:13:48;;;;;;;9.98;5.28;;;;;;;11.58;67.61;100615.59;5057654;28;20051;-60
2022/09/24 03:16:16;;;;;;;8.85;5.15;;;;;;;11.59;67.16;100605.88;5065217;28;20056;-59
2022/09/24 03:18:45;;;;;;;8.93;5.40;;;;;;;11.55;67.74;100612.28;5056769;28;20049;-61
2022/09/24 03:21:14;;;;;;;7.78;5.25;;;;;;;11.48;69.27;100617.09;5068218;28;20051;-60
2022/09/24 03:23:41;;;;;;;7.50;4.97;;;;;;;11.49;69.73;100605.63;5068746;28;20066;-61
2022/09/24 03:26:08;;;;;;;7.88;5.05;;;;;;;11.51;69.55;100601.09;5071752;28;20685;-61
2022/09/24 03:28:36;;;;;;;7.13;5.00;;;;;;;11.54;68.91;100607.97;5063260;28;20053;-62
2022/09/24 03:31:03;;;;;;;7.38;5.13;;;;;;;11.51;68.47;100619.53;5071869;28;20143;-61
2022/09/24 03:33:30;;;;;;;8.70;5.32;;;;;;;11.44;70.62;100609.47;5068581;28;20385;-61
2022/09/24 03:36:02;;;;;;;7.82;5.47;;;;;;;11.39;70.50;100605.38;5071032;28;20399;-61
2022/09/24 03:38:29;;;;;;;7.82;5.68;;;;;;;11.44;70.63;100613.00;5068448;28;20056;-61
2022/09/24 03:40:57;;;;;;;8.98;5.72;;;;;;;11.43;69.78;100611.25;5066265;28;20051;-61
2022/09/24 03:43:25;;;;;;;6.22;4.90;;;;;;;11.45;69.56;100606.75;5068449;28;20144;-61
2022/09/24 03:45:52;;;;;;;6.88;4.90;;;;;;;11.49;69.76;100604.78;5071402;28;20065;-58
2022/09/24 03:48:20;;;;;;;6.38;5.20;;;;;;;11.52;70.61;100607.22;5071503;28;20417;-62
2022/09/24 03:50:48;;;;;;;6.50;4.78;;;;;;;11.48;70.17;100603.06;5067022;28;20051;-62
2022/09/24 03:53:15;;;;;;;11.68;5.43;;;;;;;11.49;70.37;100600.34;5071919;28;20452;-62
2022/09/24 03:55:45;;;;;;;8.00;5.45;;;;;;;11.48;70.65;100596.00;5070990;28;20484;-59
2022/09/24 03:58:14;;;;;;;6.63;5.05;;;;;;;11.51;70.42;100600.25;5069971;28;20052;-59
2022/09/24 04:00:41;;;;;;;9.73;5.35;;;;;;;11.51;69.46;100598.47;5069072;28;20057;-60
2022/09/24 04:03:08;;;;;;;8.70;5.38;;;;;;;11.52;69.67;100586.97;5046574;28;20409;-62
2022/09/24 04:05:36;;;;;;;7.03;4.97;;;;;;;11.53;69.78;100587.84;5068417;28;20048;-60
2022/09/24 04:08:06;;;;;;;6.80;4.75;;;;;;;11.54;69.66;100590.38;5068360;28;20041;-61
2022/09/24 04:10:33;;;;;;;8.95;5.10;;;;;;;11.50;69.63;100586.22;5066322;28;20060;-61
2022/09/24 04:13:01;;;;;;;7.88;5.20;;;;;;;11.50;69.49;100586.22;5067394;28;20048;-63
2022/09/24 04:15:28;;;;;;;7.65;5.88;;;;;;;11.47;70.81;100578.50;5069856;28;20851;-60
2022/09/24 04:17:57;;;;;;;7.70;5.68;;;;;;;11.40;70.67;100579.84;5069880;28;20504;-61
2022/09/24 04:20:26;;;;;;;6.75;5.38;;;;;;;11.36;70.79;100573.91;5067576;28;20400;-62
2022/09/24 04:22:55;;;;;;;8.55;5.68;;;;;;;11.36;72.20;100576.56;5069458;28;20059;-62
2022/09/24 04:25:23;;;;;;;9.70;5.10;;;;;;;11.28;71.43;100581.44;5070290;28;20575;-61
2022/09/24 04:27:54;;;;;;;13.85;5.70;;;;;;;11.34;71.88;100577.59;5065267;28;20040;-60
2022/09/24 04:30:23;;;;;;;6.68;5.10;;;;;;;11.38;71.87;100584.34;5070630;28;20063;-59
2022/09/24 04:32:50;;;;;;;9.35;6.07;;;;;;;11.37;72.29;100575.59;5069789;28;20463;-61
2022/09/24 04:35:19;;;;;;;6.82;4.93;;;;;;;11.30;71.30;100574.31;5068049;28;20051;-62
2022/09/24 04:37:46;;;;;;;9.05;6.13;;;;;;;11.35;70.56;100571.38;5068118;28;20040;-62
2022/09/24 04:40:15;;;;;;;5.45;4.90;;;;;;;11.29;71.26;100577.03;5069922;28;20044;-62
2022/09/24 04:42:45;;;;;;;5.50;4.57;;;;;;;11.22;71.26;100573.94;5069344;28;20099;-62
2022/09/24 04:45:14;;;;;;;6.47;4.28;;;;;;;11.24;71.17;100571.19;5068602;28;20056;-62
2022/09/24 04:47:41;;;;;;;6.68;4.78;;;;;;;11.31;71.88;100578.63;5069233;28;20400;-62
2022/09/24 04:50:10;;;;;;;9.02;5.75;;;;;;;11.32;71.25;100575.06;5070299;28;20481;-59
2022/09/24 04:52:38;;;;;;;7.55;5.38;;;;;;;11.29;70.76;100577.88;5067203;28;20049;-61
2022/09/24 04:55:05;;;;;;;6.47;5.30;;;;;;;11.30;70.70;100584.84;5072824;28;20052;-61
2022/09/24 04:57:34;;;;;;;7.28;4.85;;;;;;;11.33;71.05;100579.38;5073764;28;20056;-61
2022/09/24 05:00:06;;;;;;;8.90;5.47;;;;;;;11.32;71.90;100580.31;5078622;28;20488;-62
2022/09/24 05:02:33;;;;;;;6.10;4.45;;;;;;;11.30;71.88;100584.84;5076251;28;20052;-61
2022/09/24 05:05:00;;;;;;;6.47;4.70;;;;;;;11.33;71.34;100586.44;5075548;28;20046;-62
2022/09/24 05:07:27;;;;;;;6.30;4.78;;;;;;;11.36;71.10;100592.38;5074472;28;20431;-60
2022/09/24 05:09:55;;;;;;;6.90;5.22;;;;;;;11.40;70.69;100585.97;5072341;28;20547;-63
2022/09/24 05:12:22;;;;;;;7.95;5.10;;;;;;;11.38;70.83;100589.63;5055368;28;20044;-61
2022/09/24 05:14:49;;;;;;;6.72;4.88;;;;;;;11.39;71.22;100588.69;5075202;28;20436;-62
2022/09/24 05:17:17;;;;;;;6.07;5.18;;;;;;;11.33;70.96;100584.66;5073267;28;20052;-62
2022/09/24 05:19:44;;;;;;;7.80;4.90;;;;;;;11.28;71.14;100584.09;5070165;28;20540;-61
2022/09/24 05:22:12;;;;;;;6.68;5.22;;;;;;;11.31;71.08;100581.28;5069125;28;20531;-62
2022/09/24 05:24:39;;;;;;;6.53;4.90;;;;;;;11.34;71.00;100583.69;5070966;22;20140;-65
2022/09/24 05:27:08;;;;;;;6.75;5.30;;;;;;;11.37;70.87;100590.56;5025545;28;20135;-65
2022/09/24 05:29:40;;;;;;;6.78;5.00;;;;;;;11.39;70.85;100596.59;5047904;28;20049;-65
2022/09/24 05:32:09;;;;;;;8.00;5.40;;;;;;;11.40;70.92;100583.34;5043951;28;20061;-67
2022/09/24 05:34:36;;;;;;;8.85;5.75;;;;;;;11.42;70.43;100585.84;5040813;28;20540;-67
2022/09/24 05:37:03;;;;;;;9.32;5.20;;;;;;;11.39;70.65;100580.78;5055380;28;20130;-67
2022/09/24 05:39:30;;;;;;;7.43;4.72;;;;;;;11.37;69.98;100585.31;5054407;28;20045;-66
2022/09/24 05:42:03;;;;;;;6.93;4.80;;;;;;;11.37;70.15;100582.66;5048207;28;20558;-65
2022/09/24 05:44:30;;;;;;;7.72;5.30;;;;;;;11.39;69.86;100586.03;5043546;28;20056;-66
2022/09/24 05:46:58;;;;;;;5.78;4.78;;;;;;;11.41;70.03;100582.38;5050108;28;20052;-64
2022/09/24 05:49:25;;;;;;;6.80;5.80;;;;;;;11.44;69.83;100588.38;5053006;28;20056;-66
2022/09/24 05:51:52;;;;;;;8.57;4.60;;;;;;;11.40;70.19;100583.34;5051130;28;20056;-65
2022/09/24 05:54:20;;;;;;;9.98;5.43;;;;;;;11.39;71.07;100588.69;5053398;28;20050;-65
2022/09/24 05:56:47;;;;;;;7.55;4.95;;;;;;;11.36;70.88;100587.09;5040651;28;20045;-65
2022/09/24 05:59:14;;;;;;;8.13;5.25;;;;;;;11.39;70.63;100586.91;5054350;28;20041;-66
2022/09/24 06:01:41;;;;;;;6.20;5.25;;;;;;;11.44;70.87;100588.38;5054293;28;20067;-66
2022/09/24 06:04:10;;;;;;;6.18;5.30;;;;;;;11.48;70.44;100589.88;5057282;28;20059;-66
2022/09/24 06:06:37;;;;;;;6.75;5.03;;;;;;;11.50;70.17;100594.13;5046228;28;20049;-67
2022/09/24 06:09:07;;;;;;;7.35;4.82;;;;;;;11.51;70.44;100595.81;5038622;28;20048;-66
2022/09/24 06:11:35;;;;;;;5.82;5.18;;;;;;;11.56;70.29;100600.81;5037269;28;20056;-65
2022/09/24 06:14:07;;;;;;;8.95;5.47;;;;;;;11.57;70.24;100602.50;5048566;28;20659;-65
2022/09/24 06:16:35;;;;;;;9.90;5.45;;;;;;;11.59;69.82;100601.47;5035993;28;20409;-66
2022/09/24 06:19:02;;;;;;;7.20;5.40;;;;;;;11.64;70.01;100595.91;5040731;28;20041;-66
2022/09/24 06:21:29;;;;;;;10.68;5.80;;;;;;;11.61;70.53;100602.19;5052467;28;20053;-68
2022/09/24 06:23:56;;;;;;;7.53;5.28;;;;;;;11.61;70.49;100604.00;5054598;28;20455;-66
2022/09/24 06:26:25;;;;;;;8.38;5.18;;;;;;;11.65;70.30;100601.06;5069160;28;20048;-66
2022/09/24 06:28:52;;;;;;;7.45;5.57;;;;;;;11.71;70.86;100606.88;5070800;28;20067;-66
2022/09/24 06:31:19;;;;;;;6.22;5.22;;;;;;;11.72;70.53;100605.97;5067596;28;20504;-66
2022/09/24 06:33:46;;;;;;;11.65;4.97;;;;;;;11.75;70.79;100600.47;5056530;28;20048;-65
2022/09/24 06:36:14;;;;;;;11.18;5.20;;;;;;;11.73;70.83;100597.94;5069263;28;20045;-66
2022/09/24 06:38:41;;;;;;;7.68;5.20;;;;;;;11.74;71.14;100602.25;5063030;28;20056;-66
2022/09/24 06:41:08;;;;;;;8.10;5.65;;;;;;;11.74;71.41;100601.41;5053160;28;20036;-65
2022/09/24 06:43:36;;;;;;;8.93;5.97;;;;;;;11.71;71.49;100591.94;5069077;28;20053;-65
2022/09/24 06:46:03;;;;;;;7.05;5.05;;;;;;;11.76;72.00;100599.56;5077233;28;20139;-65
2022/09/24 06:48:31;;;;;;;8.13;4.85;;;;;;;11.83;71.96;100598.22;5064209;28;20048;-65
2022/09/24 06:50:58;;;;;;;9.85;5.63;;;;;;;11.89;71.83;100600.47;5071457;28;20225;-65
2022/09/24 06:53:25;;;;;;;5.88;5.10;;;;;;;11.90;71.65;100600.38;5058082;28;20036;-65
2022/09/24 06:55:55;;;;;;;10.38;5.80;;;;;;;12.00;72.06;100602.41;5081069;28;20059;-65
2022/09/24 06:58:23;;;;;;;9.40;6.00;;;;;;;12.03;71.89;100596.94;5072472;28;20051;-64
2022/09/24 07:00:53;;;;;;;7.47;5.95;;;;;;;12.05;71.75;100601.16;5053473;28;20048;-66
2022/09/24 07:03:21;;;;;;;10.57;6.10;;;;;;;12.08;71.83;100593.06;5042988;28;20052;-65
2022/09/24 07:05:48;;;;;;;8.15;5.30;;;;;;;12.09;72.38;100597.38;5057830;28;20056;-65
2022/09/24 07:08:16;;;;;;;6.93;5.32;;;;;;;12.15;72.21;100609.31;5076972;28;20052;-65
2022/09/24 07:10:51;;;;;;;8.70;5.35;;;;;;;12.18;72.07;100617.03;5075681;28;20044;-66
2022/09/24 07:13:20;;;;;;;7.15;5.40;;;;;;;12.16;72.54;100621.59;5076119;28;20071;-66
2022/09/24 07:15:48;;;;;;;8.13;5.55;;;;;;;12.12;72.66;100613.03;5077044;28;20048;-66
2022/09/24 07:18:16;;;;;;;7.43;5.75;;;;;;;12.11;72.75;100616.63;5070914;28;20063;-63
2022/09/24 07:20:44;;;;;;;9.35;5.50;;;;;;;12.07;72.69;100620.41;5078288;28;20045;-65
2022/09/24 07:23:11;;;;;;;8.52;5.25;;;;;;;12.07;73.10;100622.19;5073815;28;20053;-65
2022/09/24 07:25:38;;;;;;;11.20;5.78;;;;;;;12.05;73.16;100619.63;5071903;28;20056;-65
2022/09/24 07:28:08;;;;;;;7.80;5.88;;;;;;;12.07;73.29;100623.03;5072147;28;20143;-66
2022/09/24 07:30:36;;;;;;;7.95;5.95;;;;;;;12.12;73.71;100628.84;5070802;28;20048;-65
2022/09/24 07:33:04;;;;;;;8.32;4.97;;;;;;;12.14;73.49;100629.59;5073883;28;20040;-65
2022/09/24 07:35:31;;;;;;;6.60;4.93;;;;;;;12.14;73.86;100624.31;5051766;28;20055;-65
2022/09/24 07:38:04;;;;;;;9.68;6.45;;;;;;;12.19;73.77;100623.16;5073180;28;20040;-65
2022/09/24 07:40:35;;;;;;;15.30;6.07;;;;;;;12.16;74.05;100626.88;5071867;28;20044;-65
2022/09/24 07:43:02;;;;;;;7.20;5.07;;;;;;;12.20;73.75;100625.69;5049772;28;20061;-65
2022/09/24 07:45:30;;;;;;;7.60;5.28;;;;;;;12.25;73.57;100622.75;5072993;28;20053;-65
2022/09/24 07:48:02;;;;;;;9.93;6.85;;;;;;;12.26;73.54;100620.03;5072371;28;20132;-65
2022/09/24 07:50:34;;;;;;;8.77;5.35;;;;;;;12.27;73.76;100626.16;5054629;28;20144;-64
2022/09/24 07:53:01;;;;;;;9.13;6.32;;;;;;;12.27;73.79;100623.50;5072149;28;20408;-65
2022/09/24 07:55:28;;;;;;;9.50;5.72;;;;;;;12.31;74.13;100625.00;5076803;28;20059;-65
2022/09/24 07:57:56;;;;;;;9.45;6.32;;;;;;;12.36;73.75;100621.09;5055502;28;20060;-65
2022/09/24 08:00:23;;;;;;;8.10;5.72;;;;;;;12.38;73.60;100631.53;5069191;28;20119;-65
2022/09/24 08:02:52;;;;;;;8.20;5.80;;;;;;;12.38;73.67;100629.78;5074796;28;20062;-65
2022/09/24 08:05:19;;;;;;;11.85;7.05;;;;;;;12.36;73.62;100623.75;5071684;28;20056;-65
2022/09/24 08:07:54;;;;;;;10.00;6.05;;;;;;;12.34;74.67;100628.28;5067448;28;20055;-65
2022/09/24 08:10:22;;;;;;;8.63;6.43;;;;;;;12.37;74.17;100625.44;5063171;28;20373;-65
2022/09/24 08:12:50;;;;;;;6.50;5.22;;;;;;;12.45;73.84;100630.22;5013729;28;20056;-65
2022/09/24 08:15:17;;;;;;;8.93;6.47;;;;;;;12.50;73.07;100628.09;5075236;28;20056;-64
2022/09/24 08:17:44;;;;;;;9.48;6.28;;;;;;;12.53;73.15;100627.91;5056659;28;20056;-64
2022/09/24 08:20:11;;;;;;;9.57;6.00;;;;;;;12.56;73.02;100626.84;5067487;28;20044;-66
2022/09/24 08:22:39;;;;;;;8.77;6.18;;;;;;;12.62;73.08;100627.28;5070670;28;20056;-64
2022/09/24 08:25:06;;;;;;;10.48;6.75;;;;;;;12.67;73.25;100622.53;5073361;28;20044;-65
2022/09/24 08:27:35;;;;;;;8.95;6.32;;;;;;;12.67;72.77;100627.81;5062726;28;20429;-65
2022/09/24 08:30:04;;;;;;;9.13;6.35;;;;;;;12.69;73.14;100633.00;5076318;28;20048;-64
2022/09/24 08:32:31;;;;;;;10.40;6.72;;;;;;;12.72;73.01;100631.94;5078417;28;20396;-65
2022/09/24 08:34:58;;;;;;;17.23;5.80;;;;;;;12.80;73.44;100634.91;5073095;28;20191;-66
2022/09/24 08:37:27;;;;;;;7.05;5.00;;;;;;;12.81;72.73;100633.97;5064641;28;20052;-66
2022/09/24 08:39:54;;;;;;;11.18;6.40;;;;;;;12.85;73.04;100631.00;5076386;28;20051;-66
2022/09/24 08:42:31;;;;;;;6.28;4.88;;;;;;;12.92;72.65;100634.06;5073295;28;20045;-64
2022/09/24 08:47:49;;;;;;;9.18;5.90;;;;;;;12.95;72.56;100638.31;5036146;28;20057;-64
2022/09/24 08:50:20;;;;;;;9.80;6.00;;;;;;;13.00;72.57;100634.38;5051221;28;20401;-64
2022/09/24 08:53:05;;;;;;;14.45;6.47;;;;;;;13.06;72.48;100638.44;5062224;28;20186;-64
2022/09/24 08:55:37;;;;;;;9.82;7.07;;;;;;;13.06;72.69;100641.06;5055939;28;20053;-65
2022/09/24 08:58:25;;;;;;;9.52;6.72;;;;;;;13.10;72.18;100643.41;5019045;28;20032;-65
2022/09/24 09:01:08;;;;;;;9.30;6.38;;;;;;;13.13;72.32;100631.75;5042538;28;20025;-64
2022/09/24 09:03:44;;;;;;;11.07;5.80;;;;;;;13.20;72.26;100643.59;5062113;28;20528;-65
2022/09/24 09:06:17;;;;;;;9.68;6.45;;;;;;;13.27;72.09;100638.75;5062346;28;20060;-65
2022/09/24 09:08:55;;;;;;;9.25;6.65;;;;;;;13.33;72.07;100639.19;5061280;28;20063;-65
2022/09/24 09:11:39;;;;;;;11.70;6.10;;;;;;;13.43;72.09;100639.38;5056590;28;20052;-65
2022/09/24 09:14:24;;;;;;;10.05;6.55;;;;;;;13.54;71.94;100638.59;5064013;28;20057;-65
2022/09/24 09:17:23;;;;;;;9.27;6.53;;;;;;;13.63;71.33;100637.94;5065595;28;20052;-65
2022/09/24 09:19:56;;;;;;;9.23;6.43;;;;;;;13.70;71.08;100641.00;5039054;28;20049;-65
2022/09/24 09:22:35;;;;;;;9.75;6.60;;;;;;;13.73;71.72;100638.13;5031913;28;20040;-65
2022/09/24 09:25:15;;;;;;;7.75;6.00;;;;;;;13.74;71.38;100643.31;5049011;28;20063;-65
2022/09/24 09:27:42;;;;;;;12.00;6.38;;;;;;;13.86;69.91;100633.63;5062688;28;20060;-65
2022/09/24 09:30:12;;;;;;;8.85;6.32;;;;;;;13.95;69.58;100640.91;5065066;28;20053;-65
2022/09/24 09:32:57;;;;;;;7.28;6.47;;;;;;;13.92;69.98;100641.16;5052024;28;20044;-66
2022/09/24 09:35:46;;;;;;;10.43;6.45;;;;;;;13.98;70.11;100629.28;5025833;28;20052;-64
2022/09/24 09:38:30;;;;;;;8.95;6.07;;;;;;;14.03;70.06;100635.91;5054955;28;20045;-65
2022/09/24 09:41:33;;;;;;;10.50;6.82;;;;;;;14.11;70.23;100633.56;5048148;28;20504;-65
2022/09/24 09:44:11;;;;;;;8.88;6.30;;;;;;;14.17;69.78;100635.75;5042142;28;20056;-66
2022/09/24 09:46:46;;;;;;;7.50;5.88;;;;;;;14.23;69.99;100633.59;5029108;28;20059;-65
2022/09/24 09:49:14;;;;;;;9.13;6.78;;;;;;;14.28;69.62;100626.19;5039862;28;20124;-65
2022/09/24 09:51:41;;;;;;;9.50;5.75;;;;;;;14.33;69.29;100630.16;5063370;28;20040;-66
2022/09/24 09:54:10;;;;;;;10.30;6.13;;;;;;;14.42;68.96;100634.78;5041721;28;20059;-66
2022/09/24 09:56:43;;;;;;;12.10;5.93;;;;;;;14.47;68.90;100634.44;5044210;28;20065;-65
2022/09/24 09:59:10;;;;;;;10.52;6.55;;;;;;;14.53;68.12;100630.50;5041845;28;20053;-65
2022/09/24 10:01:42;;;;;;;9.07;6.05;;;;;;;14.56;68.09;100628.47;5063614;28;20083;-64
2022/09/24 10:04:39;;;;;;;10.02;5.32;;;;;;;14.58;67.41;100631.84;5041598;28;20440;-65
2022/09/24 10:07:15;;;;;;;7.80;5.15;;;;;;;14.67;66.68;100625.00;5048061;28;20048;-66
2022/09/24 10:09:43;;;;;;;8.23;6.15;;;;;;;14.73;66.32;100629.84;5076986;28;20051;-65
2022/09/24 10:12:20;;;;;;;9.15;5.40;;;;;;;14.80;66.12;100622.25;5039722;28;20394;-65
2022/09/24 10:15:02;;;;;;;7.50;5.35;;;;;;;14.84;66.34;100626.38;5067342;28;20056;-65
2022/09/24 10:17:37;;;;;;;7.00;5.35;;;;;;;14.86;66.62;100621.78;5046194;28;20500;-66
2022/09/24 10:20:30;;;;;;;8.73;6.47;;;;;;;14.94;66.32;100622.03;5045669;28;20049;-65
2022/09/24 10:23:00;;;;;;;6.55;5.43;;;;;;;14.96;66.53;100621.94;5054715;28;20049;-64
2022/09/24 10:25:28;;;;;;;8.68;6.50;;;;;;;15.03;66.21;100612.53;5067587;28;20066;-65
2022/09/24 10:30:32;;;;;;;8.05;6.03;;;;;;;15.04;66.42;100616.88;5047086;28;20532;-64
2022/09/24 10:30:50;;;;;;;9.57;5.85;;;;;;;15.11;66.20;100618.94;5047276;28;20056;-66
2022/09/24 10:33:17;;;;;;;8.13;5.53;;;;;;;15.18;65.43;100620.16;5046745;28;20048;-67
2022/09/24 10:35:45;;;;;;;7.10;4.95;;;;;;;15.17;65.34;100618.47;5028266;28;20052;-65
2022/09/24 10:38:18;;;;;;;7.13;5.13;;;;;;;15.18;65.16;100624.59;5064547;28;20103;-64
2022/09/24 10:40:46;;;;;;;5.75;4.63;;;;;;;15.21;65.23;100619.03;5049507;28;20143;-64
2022/09/24 10:43:19;;;;;;;6.82;5.38;;;;;;;15.28;65.26;100614.13;5045580;28;20535;-65
2022/09/24 10:46:16;;;;;;;7.32;4.80;;;;;;;15.33;65.11;100619.91;5052189;28;20063;-64
2022/09/24 10:49:03;;;;;;;6.30;5.07;;;;;;;15.40;63.42;100616.66;5049357;28;20392;-66
2022/09/24 10:51:58;;;;;;;6.60;5.00;;;;;;;15.39;63.63;100619.41;5053873;28;20039;-66
2022/09/24 10:55:05;;;;;;;6.13;4.95;;;;;;;15.34;63.76;100617.13;5055218;28;20053;-65
2022/09/24 10:57:54;;;;;;;6.18;4.57;;;;;;;15.36;63.74;100619.66;5049176;28;20060;-65
2022/09/24 11:00:23;;;;;;;6.20;4.63;;;;;;;15.40;62.98;100621.09;5026781;28;20041;-65
2022/09/24 11:03:23;;;;;;;8.00;4.57;;;;;;;15.43;62.23;100624.34;5029459;28;20053;-65
2022/09/24 11:06:03;;;;;;;5.40;4.22;;;;;;;15.44;62.19;100617.22;5059661;28;20110;-65
2022/09/24 11:09:20;;;;;;;9.73;4.07;;;;;;;15.48;61.49;100618.69;5063565;28;20778;-65
2022/09/24 11:12:26;;;;;;;7.28;4.07;;;;;;;15.51;60.83;100629.06;5058928;28;20400;-65
2022/09/24 11:15:18;;;;;;;5.72;3.67;;;;;;;15.60;60.59;100619.53;5042654;28;20560;-66
2022/09/24 11:17:56;;;;;;;6.18;4.00;;;;;;;15.60;60.65;100628.31;5068524;28;20485;-66
2022/09/24 11:20:38;;;;;;;5.82;3.78;;;;;;;15.69;60.12;100622.31;5048220;28;20099;-66
2022/09/24 11:23:32;;;;;;;9.55;4.15;;;;;;;15.77;60.37;100631.47;5040546;28;20106;-66
2022/09/24 11:26:14;;;;;;;7.50;4.80;;;;;;;15.86;60.49;100633.38;5067714;28;20532;-66
2022/09/24 11:28:56;;;;;;;5.68;4.07;;;;;;;15.92;60.38;100619.59;5045749;28;20076;-66
2022/09/24 11:31:39;;;;;;;8.18;4.07;;;;;;;15.98;60.51;100619.09;5051688;28;20051;-65
2022/09/24 11:34:48;;;;;;;6.93;4.22;;;;;;;15.97;59.66;100609.44;5053460;28;20048;-65
2022/09/24 11:37:38;;;;;;;9.25;4.07;;;;;;;15.95;60.37;100616.72;5062348;28;20059;-65
2022/09/24 11:40:22;;;;;;;6.68;4.15;;;;;;;16.06;59.31;100605.19;5039680;28;20140;-65
2022/09/24 11:43:26;;;;;;;7.55;4.85;;;;;;;16.10;59.55;100606.63;5045575;28;20131;-65
2022/09/24 11:46:12;;;;;;;7.10;4.78;;;;;;;16.21;58.70;100603.94;5043432;28;20521;-66
2022/09/24 11:49:11;;;;;;;6.75;4.35;;;;;;;16.26;58.68;100600.91;5065998;28;20053;-66
2022/09/24 11:52:06;;;;;;;4.90;4.05;;;;;;;16.28;58.81;100607.75;5046023;28;20075;-66
2022/09/24 11:54:42;;;;;;;7.60;4.40;;;;;;;16.31;59.12;100606.69;5063309;28;20060;-65